sensor_id;sensor_type;location;lat;lon;timestamp;pressure;altitude;pressure_sealevel;temperature;humidity
49393;BME280;35268;42.642;23.308;2023-04-30T00:00:24;93634.13;;;9.81;68.58
49393;BME280;35268;42.642;23.308;2023-04-30T00:02:49;93635.69;;;9.82;68.19
49393;BME280;35268;42.642;23.308;2023-04-30T00:05:15;93635.69;;;9.74;68.60
49393;BME280;35268;42.642;23.308;2023-04-30T00:07:40;93639.78;;;9.71;68.56
49393;BME280;35268;42.642;23.308;2023-04-30T00:10:08;93635.06;;;9.68;68.58
49393;BME280;35268;42.642;23.308;2023-04-30T00:12:34;93631.63;;;9.68;68.15
49393;BME280;35268;42.642;23.308;2023-04-30T00:14:59;93636.47;;;9.74;68.01
49393;BME280;35268;42.642;23.308;2023-04-30T00:17:25;93632.38;;;9.77;67.69
49393;BME280;35268;42.642;23.308;2023-04-30T00:19:51;93631.91;;;9.75;67.63
49393;BME280;35268;42.642;23.308;2023-04-30T00:22:16;93638.03;;;9.75;67.32
49393;BME280;35268;42.642;23.308;2023-04-30T00:24:42;93638.03;;;9.75;67.07
49393;BME280;35268;42.642;23.308;2023-04-30T00:27:07;93625.34;;;9.72;67.20
49393;BME280;35268;42.642;23.308;2023-04-30T00:29:32;93631.44;;;9.73;67.29
49393;BME280;35268;42.642;23.308;2023-04-30T00:31:58;93632.22;;;9.64;67.75
49393;BME280;35268;42.642;23.308;2023-04-30T00:34:23;93633.34;;;9.55;68.43
49393;BME280;35268;42.642;23.308;2023-04-30T00:36:49;93631.16;;;9.57;68.26
49393;BME280;35268;42.642;23.308;2023-04-30T00:39:14;93634.41;;;9.54;68.30
49393;BME280;35268;42.642;23.308;2023-04-30T00:41:41;93629.88;;;9.54;68.21
49393;BME280;35268;42.642;23.308;2023-04-30T00:44:07;93635.97;;;9.46;68.19
49393;BME280;35268;42.642;23.308;2023-04-30T00:46:32;93636.44;;;9.48;68.18
49393;BME280;35268;42.642;23.308;2023-04-30T00:48:58;93623.94;;;9.49;67.93
49393;BME280;35268;42.642;23.308;2023-04-30T00:51:26;93627.69;;;9.48;68.00
49393;BME280;35268;42.642;23.308;2023-04-30T00:53:53;93627.69;;;9.48;68.10
49393;BME280;35268;42.642;23.308;2023-04-30T00:56:18;93621.75;;;9.51;67.90
49393;BME280;35268;42.642;23.308;2023-04-30T00:58:44;93624.41;;;9.51;67.97
49393;BME280;35268;42.642;23.308;2023-04-30T01:01:10;93621.75;;;9.51;67.99
49393;BME280;35268;42.642;23.308;2023-04-30T01:03:35;93630.81;;;9.50;68.34
49393;BME280;35268;42.642;23.308;2023-04-30T01:06:01;93624.38;;;9.42;68.60
49393;BME280;35268;42.642;23.308;2023-04-30T01:08:28;93620.31;;;9.36;68.34
49393;BME280;35268;42.642;23.308;2023-04-30T01:11:06;93621.09;;;9.36;68.54
49393;BME280;35268;42.642;23.308;2023-04-30T01:17:26;93617.16;;;9.25;68.83
49393;BME280;35268;42.642;23.308;2023-04-30T01:19:48;93622.31;;;9.21;69.01
49393;BME280;35268;42.642;23.308;2023-04-30T01:30:32;93622.91;;;9.10;69.17
49393;BME280;35268;42.642;23.308;2023-04-30T01:32:59;93621.34;;;9.00;69.45
49393;BME280;35268;42.642;23.308;2023-04-30T01:35:40;93618.97;;;8.98;69.46
49393;BME280;35268;42.642;23.308;2023-04-30T01:38:45;93620.84;;;8.98;69.68
49393;BME280;35268;42.642;23.308;2023-04-30T01:47:03;93625.38;;;8.97;70.05
49393;BME280;35268;42.642;23.308;2023-04-30T01:55:33;93625.06;;;8.90;70.13
49393;BME280;35268;42.642;23.308;2023-04-30T01:58:04;93623.47;;;8.89;70.08
49393;BME280;35268;42.642;23.308;2023-04-30T02:00:30;93616.59;;;8.88;70.08
49393;BME280;35268;42.642;23.308;2023-04-30T02:02:56;93619.25;;;8.88;70.25
49393;BME280;35268;42.642;23.308;2023-04-30T02:05:21;93630.63;;;8.80;70.33
49393;BME280;35268;42.642;23.308;2023-04-30T02:07:48;93621.91;;;8.88;70.26
49393;BME280;35268;42.642;23.308;2023-04-30T02:10:16;93621.91;;;8.88;70.31
49393;BME280;35268;42.642;23.308;2023-04-30T02:12:42;93620.22;;;8.92;70.54
49393;BME280;35268;42.642;23.308;2023-04-30T02:15:08;93615.03;;;8.87;70.30
49393;BME280;35268;42.642;23.308;2023-04-30T02:17:33;93624.09;;;8.86;70.43
49393;BME280;35268;42.642;23.308;2023-04-30T02:19:59;93627.22;;;8.88;70.65
49393;BME280;35268;42.642;23.308;2023-04-30T02:22:25;93618.78;;;8.86;70.71
49393;BME280;35268;42.642;23.308;2023-04-30T02:24:51;93621.16;;;8.88;70.67
49393;BME280;35268;42.642;23.308;2023-04-30T02:27:21;93621.28;;;8.91;70.31
49393;BME280;35268;42.642;23.308;2023-04-30T02:29:47;93622.25;;;8.95;70.29
49393;BME280;35268;42.642;23.308;2023-04-30T02:32:13;93620.69;;;8.94;70.32
49393;BME280;35268;42.642;23.308;2023-04-30T02:34:39;93620.69;;;8.94;70.41
49393;BME280;35268;42.642;23.308;2023-04-30T02:37:05;93617.88;;;8.99;70.65
49393;BME280;35268;42.642;23.308;2023-04-30T02:39:31;93624.00;;;9.00;70.61
49393;BME280;35268;42.642;23.308;2023-04-30T02:41:57;93622.59;;;9.02;70.47
49393;BME280;35268;42.642;23.308;2023-04-30T02:44:23;93616.63;;;9.06;70.55
49393;BME280;35268;42.642;23.308;2023-04-30T02:46:48;93616.50;;;9.11;70.48
49393;BME280;35268;42.642;23.308;2023-04-30T02:49:13;93626.50;;;9.14;70.56
49393;BME280;35268;42.642;23.308;2023-04-30T02:51:39;93626.69;;;9.17;70.85
49393;BME280;35268;42.642;23.308;2023-04-30T02:54:05;93619.66;;;9.21;70.86
49393;BME280;35268;42.642;23.308;2023-04-30T02:56:30;93625.16;;;9.25;70.85
49393;BME280;35268;42.642;23.308;2023-04-30T02:58:55;93633.28;;;9.29;70.65
49393;BME280;35268;42.642;23.308;2023-04-30T03:01:21;93632.34;;;9.33;70.48
49393;BME280;35268;42.642;23.308;2023-04-30T03:03:46;93624.25;;;9.38;70.89
49393;BME280;35268;42.642;23.308;2023-04-30T03:07:04;93633.47;;;9.41;70.98
49393;BME280;35268;42.642;23.308;2023-04-30T03:09:42;93629.88;;;9.46;70.82
49393;BME280;35268;42.642;23.308;2023-04-30T03:12:08;93633.00;;;9.48;70.77
49393;BME280;35268;42.642;23.308;2023-04-30T03:14:33;93633.34;;;9.55;70.54
49393;BME280;35268;42.642;23.308;2023-04-30T03:16:59;93636.94;;;9.59;70.37
49393;BME280;35268;42.642;23.308;2023-04-30T03:19:24;93641.16;;;9.60;70.21
49393;BME280;35268;42.642;23.308;2023-04-30T03:21:53;93640.38;;;9.68;70.51
49393;BME280;35268;42.642;23.308;2023-04-30T03:24:19;93654.63;;;9.72;70.89
49393;BME280;35268;42.642;23.308;2023-04-30T03:26:45;93647.13;;;9.74;71.40
49393;BME280;35268;42.642;23.308;2023-04-30T03:29:10;93654.97;;;9.79;71.32
49393;BME280;35268;42.642;23.308;2023-04-30T03:31:36;93641.31;;;9.81;70.99
49393;BME280;35268;42.642;23.308;2023-04-30T03:34:01;93649.47;;;9.84;71.22
49393;BME280;35268;42.642;23.308;2023-04-30T03:36:27;93646.19;;;9.88;71.66
49393;BME280;35268;42.642;23.308;2023-04-30T03:38:52;93642.13;;;9.90;71.97
49393;BME280;35268;42.642;23.308;2023-04-30T03:41:18;93640.69;;;9.93;71.75
49393;BME280;35268;42.642;23.308;2023-04-30T03:43:43;93651.81;;;9.95;71.74
49393;BME280;35268;42.642;23.308;2023-04-30T03:46:09;93666.53;;;10.01;72.31
49393;BME280;35268;42.642;23.308;2023-04-30T03:48:34;93664.34;;;10.03;72.50
49393;BME280;35268;42.642;23.308;2023-04-30T03:51:00;93658.41;;;10.06;72.37
49393;BME280;35268;42.642;23.308;2023-04-30T03:53:25;93665.75;;;10.09;72.73
49393;BME280;35268;42.642;23.308;2023-04-30T03:55:52;93668.56;;;10.13;73.36
49393;BME280;35268;42.642;23.308;2023-04-30T03:58:18;93670.94;;;10.14;73.40
49393;BME280;35268;42.642;23.308;2023-04-30T04:00:44;93664.50;;;10.15;72.29
49393;BME280;35268;42.642;23.308;2023-04-30T04:03:10;93665.28;;;10.16;70.88
49393;BME280;35268;42.642;23.308;2023-04-30T04:05:36;93668.44;;;10.18;70.12
49393;BME280;35268;42.642;23.308;2023-04-30T04:08:01;93669.97;;;10.19;68.50
49393;BME280;35268;42.642;23.308;2023-04-30T04:10:27;93674.53;;;10.18;68.00
49393;BME280;35268;42.642;23.308;2023-04-30T04:12:53;93675.00;;;10.20;68.50
49393;BME280;35268;42.642;23.308;2023-04-30T04:15:18;93669.38;;;10.22;68.14
49393;BME280;35268;42.642;23.308;2023-04-30T04:17:44;93680.78;;;10.22;68.14
49393;BME280;35268;42.642;23.308;2023-04-30T04:20:10;93673.28;;;10.24;67.84
49393;BME280;35268;42.642;23.308;2023-04-30T04:22:35;93674.81;;;10.25;68.24
49393;BME280;35268;42.642;23.308;2023-04-30T04:25:01;93691.91;;;10.24;68.46
49393;BME280;35268;42.642;23.308;2023-04-30T04:27:26;93685.94;;;10.28;68.66
49393;BME280;35268;42.642;23.308;2023-04-30T04:29:52;93682.69;;;10.31;68.12
49393;BME280;35268;42.642;23.308;2023-04-30T04:32:19;93677.66;;;10.38;67.86
49393;BME280;35268;42.642;23.308;2023-04-30T04:34:44;93675.31;;;10.45;67.31
49393;BME280;35268;42.642;23.308;2023-04-30T04:37:10;93684.41;;;10.53;67.42
49393;BME280;35268;42.642;23.308;2023-04-30T04:39:35;93678.09;;;10.57;66.88
49393;BME280;35268;42.642;23.308;2023-04-30T04:42:01;93674.94;;;10.64;66.15
49393;BME280;35268;42.642;23.308;2023-04-30T04:44:27;93687.19;;;10.65;66.29
49393;BME280;35268;42.642;23.308;2023-04-30T04:46:53;93690.94;;;10.73;66.52
49393;BME280;35268;42.642;23.308;2023-04-30T04:49:18;93695.63;;;10.76;66.36
49393;BME280;35268;42.642;23.308;2023-04-30T04:51:45;93696.88;;;10.78;66.06
49393;BME280;35268;42.642;23.308;2023-04-30T04:54:10;93701.88;;;10.80;65.90
49393;BME280;35268;42.642;23.308;2023-04-30T04:56:36;93699.38;;;10.83;66.17
49393;BME280;35268;42.642;23.308;2023-04-30T04:59:01;93709.53;;;10.90;66.90
49393;BME280;35268;42.642;23.308;2023-04-30T05:01:26;93698.72;;;10.95;66.91
49393;BME280;35268;42.642;23.308;2023-04-30T05:03:53;93699.66;;;10.99;66.48
49393;BME280;35268;42.642;23.308;2023-04-30T05:06:19;93699.00;;;11.02;66.41
49393;BME280;35268;42.642;23.308;2023-04-30T05:08:44;93699.16;;;11.06;66.44
49393;BME280;35268;42.642;23.308;2023-04-30T05:11:10;93697.09;;;11.12;66.44
49393;BME280;35268;42.642;23.308;2023-04-30T05:13:36;93701.16;;;11.18;66.25
49393;BME280;35268;42.642;23.308;2023-04-30T05:16:02;93697.66;;;11.26;66.27
49393;BME280;35268;42.642;23.308;2023-04-30T05:18:27;93701.06;;;11.35;65.81
49393;BME280;35268;42.642;23.308;2023-04-30T05:20:53;93694.44;;;11.41;65.56
49393;BME280;35268;42.642;23.308;2023-04-30T05:23:18;93709.97;;;11.48;65.37
49393;BME280;35268;42.642;23.308;2023-04-30T05:25:44;93703.97;;;11.51;65.72
49393;BME280;35268;42.642;23.308;2023-04-30T05:28:10;93711.66;;;11.53;66.19
49393;BME280;35268;42.642;23.308;2023-04-30T05:30:35;93696.94;;;11.47;66.27
49393;BME280;35268;42.642;23.308;2023-04-30T05:33:01;93698.94;;;11.50;66.16
49393;BME280;35268;42.642;23.308;2023-04-30T05:35:26;93707.41;;;11.52;65.60
49393;BME280;35268;42.642;23.308;2023-04-30T05:37:54;93706.94;;;11.50;65.57
49393;BME280;35268;42.642;23.308;2023-04-30T05:40:21;93704.44;;;11.53;65.57
49393;BME280;35268;42.642;23.308;2023-04-30T05:42:46;93708.78;;;11.58;65.95
49393;BME280;35268;42.642;23.308;2023-04-30T05:45:12;93701.69;;;11.62;65.45
49393;BME280;35268;42.642;23.308;2023-04-30T05:47:40;93696.50;;;11.65;65.77
49393;BME280;35268;42.642;23.308;2023-04-30T05:50:06;93705.91;;;11.72;65.30
49393;BME280;35268;42.642;23.308;2023-04-30T05:52:31;93700.09;;;11.70;65.58
49393;BME280;35268;42.642;23.308;2023-04-30T05:54:57;93705.56;;;11.73;65.49
49393;BME280;35268;42.642;23.308;2023-04-30T05:57:22;93701.28;;;11.81;65.74
49393;BME280;35268;42.642;23.308;2023-04-30T05:59:48;93704.06;;;11.93;65.21
49393;BME280;35268;42.642;23.308;2023-04-30T06:02:13;93714.06;;;12.05;64.96
49393;BME280;35268;42.642;23.308;2023-04-30T06:04:39;93708.31;;;12.15;64.56
49393;BME280;35268;42.642;23.308;2023-04-30T06:07:04;93709.22;;;12.19;64.23
49393;BME280;35268;42.642;23.308;2023-04-30T06:09:30;93711.09;;;12.19;63.35
49393;BME280;35268;42.642;23.308;2023-04-30T06:11:56;93712.81;;;12.23;62.50
49393;BME280;35268;42.642;23.308;2023-04-30T06:14:22;93711.50;;;12.30;62.49
49393;BME280;35268;42.642;23.308;2023-04-30T06:16:48;93709.06;;;12.37;61.79
49393;BME280;35268;42.642;23.308;2023-04-30T06:19:16;93715.13;;;12.46;61.66
49393;BME280;35268;42.642;23.308;2023-04-30T06:21:43;93724.31;;;12.57;60.79
49393;BME280;35268;42.642;23.308;2023-04-30T06:24:08;93720.22;;;12.60;61.49
49393;BME280;35268;42.642;23.308;2023-04-30T06:26:38;93725.78;;;12.67;61.80
49393;BME280;35268;42.642;23.308;2023-04-30T06:29:03;93726.34;;;12.60;61.39
49393;BME280;35268;42.642;23.308;2023-04-30T06:31:32;93713.41;;;12.62;60.99
49393;BME280;35268;42.642;23.308;2023-04-30T06:33:57;93725.56;;;12.60;61.26
49393;BME280;35268;42.642;23.308;2023-04-30T06:36:23;93723.41;;;12.53;61.29
49393;BME280;35268;42.642;23.308;2023-04-30T06:38:48;93720.50;;;12.46;61.27
49393;BME280;35268;42.642;23.308;2023-04-30T06:41:17;93727.06;;;12.49;61.18
49393;BME280;35268;42.642;23.308;2023-04-30T06:43:43;93736.22;;;12.48;61.75
49393;BME280;35268;42.642;23.308;2023-04-30T06:46:14;93731.81;;;12.43;61.65
49393;BME280;35268;42.642;23.308;2023-04-30T06:48:40;93735.25;;;12.43;61.62
49393;BME280;35268;42.642;23.308;2023-04-30T06:51:09;93735.66;;;12.54;61.81
49393;BME280;35268;42.642;23.308;2023-04-30T06:53:34;93732.28;;;12.66;61.21
49393;BME280;35268;42.642;23.308;2023-04-30T06:56:00;93737.13;;;12.85;60.60
49393;BME280;35268;42.642;23.308;2023-04-30T06:58:25;93736.16;;;13.02;60.07
49393;BME280;35268;42.642;23.308;2023-04-30T07:00:50;93731.94;;;13.01;60.48
49393;BME280;35268;42.642;23.308;2023-04-30T07:03:16;93733.63;;;13.18;60.58
49393;BME280;35268;42.642;23.308;2023-04-30T07:05:42;93734.38;;;13.39;60.45
49393;BME280;35268;42.642;23.308;2023-04-30T07:08:07;93730.34;;;13.58;58.66
49393;BME280;35268;42.642;23.308;2023-04-30T07:10:33;93729.22;;;13.71;58.14
49393;BME280;35268;42.642;23.308;2023-04-30T07:12:58;93727.88;;;13.77;57.27
49393;BME280;35268;42.642;23.308;2023-04-30T07:15:24;93732.34;;;13.85;56.89
49393;BME280;35268;42.642;23.308;2023-04-30T07:17:49;93740.16;;;13.91;57.97
49393;BME280;35268;42.642;23.308;2023-04-30T07:20:15;93747.19;;;13.83;58.57
49393;BME280;35268;42.642;23.308;2023-04-30T07:22:43;93736.47;;;13.83;58.39
49393;BME280;35268;42.642;23.308;2023-04-30T07:25:10;93744.19;;;13.84;58.97
49393;BME280;35268;42.642;23.308;2023-04-30T07:27:36;93738.16;;;13.88;58.18
49393;BME280;35268;42.642;23.308;2023-04-30T07:30:02;93731.69;;;13.89;58.41
49393;BME280;35268;42.642;23.308;2023-04-30T07:32:28;93732.25;;;13.94;57.78
49393;BME280;35268;42.642;23.308;2023-04-30T07:34:53;93742.38;;;14.01;57.70
49393;BME280;35268;42.642;23.308;2023-04-30T07:37:19;93733.66;;;13.92;57.23
49393;BME280;35268;42.642;23.308;2023-04-30T07:39:44;93739.25;;;13.99;56.66
49393;BME280;35268;42.642;23.308;2023-04-30T07:42:10;93741.50;;;13.97;56.93
49393;BME280;35268;42.642;23.308;2023-04-30T07:44:35;93742.97;;;13.94;56.66
49393;BME280;35268;42.642;23.308;2023-04-30T07:47:01;93744.84;;;13.94;56.28
49393;BME280;35268;42.642;23.308;2023-04-30T07:49:27;93747.31;;;13.99;57.29
49393;BME280;35268;42.642;23.308;2023-04-30T07:51:52;93751.31;;;14.05;56.84
49393;BME280;35268;42.642;23.308;2023-04-30T07:54:18;93751.06;;;14.10;56.18
49393;BME280;35268;42.642;23.308;2023-04-30T07:56:43;93751.50;;;14.12;56.02
49393;BME280;35268;42.642;23.308;2023-04-30T07:59:09;93748.16;;;14.15;55.46
49393;BME280;35268;42.642;23.308;2023-04-30T08:01:34;93760.44;;;14.16;55.12
49393;BME280;35268;42.642;23.308;2023-04-30T08:04:00;93751.28;;;14.17;55.41
49393;BME280;35268;42.642;23.308;2023-04-30T08:06:25;93750.97;;;14.19;55.13
49393;BME280;35268;42.642;23.308;2023-04-30T08:08:51;93750.81;;;14.28;56.97
49393;BME280;35268;42.642;23.308;2023-04-30T08:11:17;93749.91;;;14.36;54.69
49393;BME280;35268;42.642;23.308;2023-04-30T08:13:42;93756.75;;;14.33;53.73
49393;BME280;35268;42.642;23.308;2023-04-30T08:16:08;93760.25;;;14.09;54.16
49393;BME280;35268;42.642;23.308;2023-04-30T08:18:33;93759.09;;;14.10;53.43
49393;BME280;35268;42.642;23.308;2023-04-30T08:20:59;93766.94;;;14.15;54.20
49393;BME280;35268;42.642;23.308;2023-04-30T08:23:26;93763.56;;;14.18;53.39
49393;BME280;35268;42.642;23.308;2023-04-30T08:25:51;93750.72;;;14.24;53.55
49393;BME280;35268;42.642;23.308;2023-04-30T08:28:17;93759.75;;;14.32;52.96
49393;BME280;35268;42.642;23.308;2023-04-30T08:30:42;93759.63;;;14.40;53.77
49393;BME280;35268;42.642;23.308;2023-04-30T08:33:08;93755.69;;;14.50;52.69
49393;BME280;35268;42.642;23.308;2023-04-30T08:35:33;93755.22;;;14.60;51.66
49393;BME280;35268;42.642;23.308;2023-04-30T08:37:59;93757.53;;;14.74;51.49
49393;BME280;35268;42.642;23.308;2023-04-30T08:40:25;93754.69;;;14.83;50.55
49393;BME280;35268;42.642;23.308;2023-04-30T08:43:05;93759.78;;;15.00;50.54
49393;BME280;35268;42.642;23.308;2023-04-30T08:45:32;93750.69;;;15.05;49.33
49393;BME280;35268;42.642;23.308;2023-04-30T08:47:59;93752.94;;;15.03;49.01
49393;BME280;35268;42.642;23.308;2023-04-30T08:50:25;93747.78;;;15.10;48.98
49393;BME280;35268;42.642;23.308;2023-04-30T08:52:51;93737.53;;;15.16;48.49
49393;BME280;35268;42.642;23.308;2023-04-30T08:55:16;93753.50;;;15.24;48.67
49393;BME280;35268;42.642;23.308;2023-04-30T08:57:42;93740.84;;;15.25;46.91
49393;BME280;35268;42.642;23.308;2023-04-30T09:00:07;93746.38;;;15.32;48.53
49393;BME280;35268;42.642;23.308;2023-04-30T09:02:34;93739.63;;;15.38;48.26
49393;BME280;35268;42.642;23.308;2023-04-30T09:05:10;93736.38;;;15.45;49.59
49393;BME280;35268;42.642;23.308;2023-04-30T09:07:39;93725.09;;;15.55;48.33
49393;BME280;35268;42.642;23.308;2023-04-30T09:10:14;93718.84;;;15.67;49.36
49393;BME280;35268;42.642;23.308;2023-04-30T09:12:41;93717.94;;;15.75;46.65
49393;BME280;35268;42.642;23.308;2023-04-30T09:15:10;93722.59;;;15.78;45.53
49393;BME280;35268;42.642;23.308;2023-04-30T09:17:36;93722.34;;;15.83;45.42
49393;BME280;35268;42.642;23.308;2023-04-30T09:20:09;93716.84;;;15.96;45.76
49393;BME280;35268;42.642;23.308;2023-04-30T09:22:36;93716.47;;;15.97;44.55
49393;BME280;35268;42.642;23.308;2023-04-30T09:25:02;93707.66;;;15.97;45.97
49393;BME280;35268;42.642;23.308;2023-04-30T09:27:28;93709.53;;;16.12;44.32
49393;BME280;35268;42.642;23.308;2023-04-30T09:29:53;93690.41;;;16.17;45.66
49393;BME280;35268;42.642;23.308;2023-04-30T09:32:18;93708.19;;;16.22;44.18
49393;BME280;35268;42.642;23.308;2023-04-30T09:34:44;93696.25;;;16.39;44.05
49393;BME280;35268;42.642;23.308;2023-04-30T09:37:10;93686.63;;;16.57;42.37
49393;BME280;35268;42.642;23.308;2023-04-30T09:39:54;93697.31;;;16.73;42.20
49393;BME280;35268;42.642;23.308;2023-04-30T09:42:21;93684.84;;;16.84;41.88
49393;BME280;35268;42.642;23.308;2023-04-30T09:44:46;93697.31;;;16.93;40.99
49393;BME280;35268;42.642;23.308;2023-04-30T09:47:17;93691.84;;;16.89;41.23
49393;BME280;35268;42.642;23.308;2023-04-30T09:49:46;93688.03;;;16.90;41.02
49393;BME280;35268;42.642;23.308;2023-04-30T09:52:14;93692.91;;;17.04;42.14
49393;BME280;35268;42.642;23.308;2023-04-30T09:54:40;93687.09;;;17.02;41.38
49393;BME280;35268;42.642;23.308;2023-04-30T09:57:10;93680.50;;;16.99;41.74
49393;BME280;35268;42.642;23.308;2023-04-30T09:59:36;93678.22;;;17.01;42.05
49393;BME280;35268;42.642;23.308;2023-04-30T10:02:07;93675.66;;;16.86;41.68
49393;BME280;35268;42.642;23.308;2023-04-30T10:04:35;93667.19;;;16.87;41.86
49393;BME280;35268;42.642;23.308;2023-04-30T10:07:09;93667.19;;;16.87;41.38
49393;BME280;35268;42.642;23.308;2023-04-30T10:09:39;93663.22;;;17.00;39.80
49393;BME280;35268;42.642;23.308;2023-04-30T10:12:07;93670.34;;;17.12;39.80
49393;BME280;35268;42.642;23.308;2023-04-30T10:14:36;93670.88;;;17.21;40.25
49393;BME280;35268;42.642;23.308;2023-04-30T10:17:12;93661.66;;;17.22;40.22
49393;BME280;35268;42.642;23.308;2023-04-30T10:19:38;93668.66;;;17.27;40.72
49393;BME280;35268;42.642;23.308;2023-04-30T10:22:06;93666.22;;;17.18;41.62
49393;BME280;35268;42.642;23.308;2023-04-30T10:24:33;93673.25;;;17.03;42.02
49393;BME280;35268;42.642;23.308;2023-04-30T10:26:58;93680.44;;;16.96;42.56
49393;BME280;35268;42.642;23.308;2023-04-30T10:29:24;93679.38;;;16.81;42.16
49393;BME280;35268;42.642;23.308;2023-04-30T10:31:50;93722.44;;;16.42;44.72
49393;BME280;35268;42.642;23.308;2023-04-30T10:36:59;93728.06;;;14.62;56.94
49393;BME280;35268;42.642;23.308;2023-04-30T10:39:28;93727.56;;;13.54;58.99
49393;BME280;35268;42.642;23.308;2023-04-30T10:42:02;93737.81;;;13.07;59.83
49393;BME280;35268;42.642;23.308;2023-04-30T10:44:31;93747.22;;;12.79;64.22
49393;BME280;35268;42.642;23.308;2023-04-30T10:46:58;93735.50;;;12.72;68.13
49393;BME280;35268;42.642;23.308;2023-04-30T10:49:24;93727.72;;;12.79;70.79
49393;BME280;35268;42.642;23.308;2023-04-30T10:51:51;93724.69;;;13.01;67.18
49393;BME280;35268;42.642;23.308;2023-04-30T10:54:25;93723.53;;;13.36;69.09
49393;BME280;35268;42.642;23.308;2023-04-30T10:56:52;93708.56;;;13.72;67.34
49393;BME280;35268;42.642;23.308;2023-04-30T10:59:17;93705.50;;;14.10;70.71
49393;BME280;35268;42.642;23.308;2023-04-30T11:01:53;93699.69;;;14.49;67.64
49393;BME280;35268;42.642;23.308;2023-04-30T11:04:20;93701.25;;;14.90;64.56
49393;BME280;35268;42.642;23.308;2023-04-30T11:09:18;93697.63;;;15.62;63.10
49393;BME280;35268;42.642;23.308;2023-04-30T11:11:44;93687.84;;;15.86;66.34
49393;BME280;35268;42.642;23.308;2023-04-30T11:14:19;93699.75;;;16.04;64.42
49393;BME280;35268;42.642;23.308;2023-04-30T11:16:48;93692.41;;;16.20;62.65
49393;BME280;35268;42.642;23.308;2023-04-30T11:19:14;93694.50;;;16.47;55.03
49393;BME280;35268;42.642;23.308;2023-04-30T11:21:41;93682.50;;;16.63;52.87
49393;BME280;35268;42.642;23.308;2023-04-30T11:24:06;93684.84;;;16.84;46.64
49393;BME280;35268;42.642;23.308;2023-04-30T11:27:05;93681.47;;;16.88;46.30
49393;BME280;35268;42.642;23.308;2023-04-30T11:29:31;93681.72;;;17.02;47.92
49393;BME280;35268;42.642;23.308;2023-04-30T11:31:59;93681.22;;;16.96;46.36
49393;BME280;35268;42.642;23.308;2023-04-30T11:34:25;93672.41;;;16.99;45.98
49393;BME280;35268;42.642;23.308;2023-04-30T11:36:53;93677.19;;;16.87;48.29
49393;BME280;35268;42.642;23.308;2023-04-30T11:39:23;93680.38;;;16.92;48.16
49393;BME280;35268;42.642;23.308;2023-04-30T11:41:50;93682.91;;;17.04;48.22
49393;BME280;35268;42.642;23.308;2023-04-30T11:44:24;93675.50;;;17.21;47.74
49393;BME280;35268;42.642;23.308;2023-04-30T11:46:50;93675.78;;;17.39;43.19
49393;BME280;35268;42.642;23.308;2023-04-30T11:49:16;93680.63;;;17.53;46.23
49393;BME280;35268;42.642;23.308;2023-04-30T11:51:41;93673.06;;;17.62;42.70
49393;BME280;35268;42.642;23.308;2023-04-30T11:54:07;93673.75;;;17.82;44.01
49393;BME280;35268;42.642;23.308;2023-04-30T11:56:36;93672.84;;;17.97;45.12
49393;BME280;35268;42.642;23.308;2023-04-30T11:59:09;93679.63;;;18.14;43.92
49393;BME280;35268;42.642;23.308;2023-04-30T12:01:35;93670.78;;;18.48;46.56
49393;BME280;35268;42.642;23.308;2023-04-30T12:04:05;93670.88;;;18.85;45.05
49393;BME280;35268;42.642;23.308;2023-04-30T12:06:31;93666.56;;;19.18;43.42
49393;BME280;35268;42.642;23.308;2023-04-30T12:09:00;93668.34;;;19.44;42.71
49393;BME280;35268;42.642;23.308;2023-04-30T12:11:29;93666.50;;;19.59;41.15
49393;BME280;35268;42.642;23.308;2023-04-30T12:14:03;93661.50;;;19.61;41.72
49393;BME280;35268;42.642;23.308;2023-04-30T12:16:45;93659.94;;;19.56;43.95
49393;BME280;35268;42.642;23.308;2023-04-30T12:19:14;93670.44;;;19.69;43.93
49393;BME280;35268;42.642;23.308;2023-04-30T12:21:41;93672.81;;;19.74;43.42
49393;BME280;35268;42.642;23.308;2023-04-30T12:24:10;93667.03;;;19.75;44.28
49393;BME280;35268;42.642;23.308;2023-04-30T12:26:37;93687.03;;;19.67;43.25
49393;BME280;35268;42.642;23.308;2023-04-30T12:29:07;93694.94;;;19.42;43.11
49393;BME280;35268;42.642;23.308;2023-04-30T12:31:32;93706.97;;;19.48;43.63
49393;BME280;35268;42.642;23.308;2023-04-30T12:34:05;93696.91;;;19.45;44.30
49393;BME280;35268;42.642;23.308;2023-04-30T12:36:31;93702.25;;;19.41;44.59
49393;BME280;35268;42.642;23.308;2023-04-30T12:39:14;93703.28;;;19.26;45.46
49393;BME280;35268;42.642;23.308;2023-04-30T12:41:46;93709.84;;;18.88;45.68
49393;BME280;35268;42.642;23.308;2023-04-30T12:44:23;93716.94;;;18.69;46.12
49393;BME280;35268;42.642;23.308;2023-04-30T12:46:50;93718.53;;;18.74;46.67
49393;BME280;35268;42.642;23.308;2023-04-30T12:49:32;93708.53;;;18.78;46.29
49393;BME280;35268;42.642;23.308;2023-04-30T12:52:03;93708.63;;;18.81;45.43
49393;BME280;35268;42.642;23.308;2023-04-30T12:54:32;93721.72;;;18.79;45.82
49393;BME280;35268;42.642;23.308;2023-04-30T12:57:00;93713.31;;;18.88;45.28
49393;BME280;35268;42.642;23.308;2023-04-30T12:59:35;93713.47;;;19.02;44.80
49393;BME280;35268;42.642;23.308;2023-04-30T13:02:08;93708.47;;;19.04;44.85
49393;BME280;35268;42.642;23.308;2023-04-30T13:04:35;93704.38;;;19.18;44.31
49393;BME280;35268;42.642;23.308;2023-04-30T13:07:01;93709.16;;;19.35;43.79
49393;BME280;35268;42.642;23.308;2023-04-30T13:09:28;93694.22;;;19.49;43.76
49393;BME280;35268;42.642;23.308;2023-04-30T13:11:54;93705.44;;;19.51;43.57
49393;BME280;35268;42.642;23.308;2023-04-30T13:14:20;93687.38;;;19.58;43.29
49393;BME280;35268;42.642;23.308;2023-04-30T13:16:45;93690.16;;;19.69;42.93
49393;BME280;35268;42.642;23.308;2023-04-30T13:19:11;93683.22;;;19.72;42.51
49393;BME280;35268;42.642;23.308;2023-04-30T13:21:37;93683.16;;;19.68;42.81